sensor_id;sensor_type;location;lat;lon;timestamp;P1;durP1;ratioP1;P2;durP2;ratioP2
42600;SDS011;28229;48.856;9.088;2022-12-15T00:00:33;34.97;;;21.47;;
42600;SDS011;28229;48.856;9.088;2022-12-15T00:03:17;36.60;;;22.07;;
42600;SDS011;28229;48.856;9.088;2022-12-15T00:06:02;36.23;;;21.93;;
42600;SDS011;28229;48.856;9.088;2022-12-15T00:08:46;39.83;;;23.37;;
42600;SDS011;28229;48.856;9.088;2022-12-15T00:11:30;35.77;;;22.90;;
42600;SDS011;28229;48.856;9.088;2022-12-15T00:14:14;39.77;;;21.97;;
42600;SDS011;28229;48.856;9.088;2022-12-15T00:16:59;37.10;;;22.87;;
42600;SDS011;28229;48.856;9.088;2022-12-15T00:19:43;38.60;;;22.03;;
42600;SDS011;28229;48.856;9.088;2022-12-15T00:22:27;37.83;;;22.63;;
42600;SDS011;28229;48.856;9.088;2022-12-15T00:25:12;34.73;;;21.70;;
42600;SDS011;28229;48.856;9.088;2022-12-15T00:27:56;40.73;;;23.10;;
42600;SDS011;28229;48.856;9.088;2022-12-15T00:30:41;37.17;;;22.50;;
42600;SDS011;28229;48.856;9.088;2022-12-15T00:33:25;39.93;;;22.80;;
42600;SDS011;28229;48.856;9.088;2022-12-15T00:36:09;39.00;;;21.70;;
42600;SDS011;28229;48.856;9.088;2022-12-15T00:38:53;41.30;;;23.57;;
42600;SDS011;28229;48.856;9.088;2022-12-15T00:41:19;42.60;;;24.43;;
42600;SDS011;28229;48.856;9.088;2022-12-15T00:43:45;44.30;;;26.10;;
42600;SDS011;28229;48.856;9.088;2022-12-15T00:46:11;41.20;;;25.60;;
42600;SDS011;28229;48.856;9.088;2022-12-15T00:48:56;43.10;;;25.20;;
42600;SDS011;28229;48.856;9.088;2022-12-15T00:51:22;39.63;;;24.33;;
42600;SDS011;28229;48.856;9.088;2022-12-15T00:54:07;40.37;;;23.23;;
42600;SDS011;28229;48.856;9.088;2022-12-15T00:56:53;36.23;;;21.90;;
42600;SDS011;28229;48.856;9.088;2022-12-15T00:59:37;39.00;;;21.20;;
42600;SDS011;28229;48.856;9.088;2022-12-15T01:02:22;38.50;;;23.67;;
42600;SDS011;28229;48.856;9.088;2022-12-15T01:05:06;38.43;;;22.47;;
42600;SDS011;28229;48.856;9.088;2022-12-15T01:07:51;36.87;;;22.30;;
42600;SDS011;28229;48.856;9.088;2022-12-15T01:10:35;38.83;;;22.93;;
42600;SDS011;28229;48.856;9.088;2022-12-15T01:13:19;37.23;;;22.37;;
42600;SDS011;28229;48.856;9.088;2022-12-15T01:16:10;37.80;;;22.83;;
42600;SDS011;28229;48.856;9.088;2022-12-15T01:18:55;34.10;;;21.00;;
42600;SDS011;28229;48.856;9.088;2022-12-15T01:21:40;37.70;;;22.83;;
42600;SDS011;28229;48.856;9.088;2022-12-15T01:24:05;39.00;;;22.53;;
42600;SDS011;28229;48.856;9.088;2022-12-15T01:26:31;36.77;;;22.97;;
42600;SDS011;28229;48.856;9.088;2022-12-15T01:28:57;36.37;;;22.27;;
42600;SDS011;28229;48.856;9.088;2022-12-15T01:31:23;37.10;;;22.33;;
42600;SDS011;28229;48.856;9.088;2022-12-15T01:33:51;38.37;;;22.33;;
42600;SDS011;28229;48.856;9.088;2022-12-15T01:36:18;36.50;;;22.90;;
42600;SDS011;28229;48.856;9.088;2022-12-15T01:38:47;38.10;;;23.07;;
42600;SDS011;28229;48.856;9.088;2022-12-15T01:41:13;36.57;;;22.77;;
42600;SDS011;28229;48.856;9.088;2022-12-15T01:43:39;36.37;;;22.40;;
42600;SDS011;28229;48.856;9.088;2022-12-15T01:46:07;38.03;;;21.97;;
42600;SDS011;28229;48.856;9.088;2022-12-15T01:48:39;38.10;;;23.07;;
42600;SDS011;28229;48.856;9.088;2022-12-15T01:51:19;38.10;;;22.47;;
42600;SDS011;28229;48.856;9.088;2022-12-15T01:53:54;38.27;;;22.50;;
42600;SDS011;28229;48.856;9.088;2022-12-15T01:56:27;42.10;;;23.70;;
42600;SDS011;28229;48.856;9.088;2022-12-15T01:58:56;42.93;;;24.37;;
42600;SDS011;28229;48.856;9.088;2022-12-15T02:01:26;41.73;;;23.70;;
42600;SDS011;28229;48.856;9.088;2022-12-15T02:03:52;34.43;;;22.53;;
42600;SDS011;28229;48.856;9.088;2022-12-15T02:06:18;38.73;;;23.87;;
42600;SDS011;28229;48.856;9.088;2022-12-15T02:08:49;39.97;;;23.07;;
42600;SDS011;28229;48.856;9.088;2022-12-15T02:11:23;38.10;;;22.10;;
42600;SDS011;28229;48.856;9.088;2022-12-15T02:14:09;37.97;;;22.27;;
42600;SDS011;28229;48.856;9.088;2022-12-15T02:22:17;42.13;;;22.90;;
42600;SDS011;28229;48.856;9.088;2022-12-15T02:25:09;41.80;;;23.40;;
42600;SDS011;28229;48.856;9.088;2022-12-15T02:28:23;44.97;;;23.07;;
42600;SDS011;28229;48.856;9.088;2022-12-15T02:31:27;41.43;;;23.27;;
42600;SDS011;28229;48.856;9.088;2022-12-15T02:34:20;40.97;;;23.50;;
42600;SDS011;28229;48.856;9.088;2022-12-15T02:37:13;43.53;;;24.07;;
42600;SDS011;28229;48.856;9.088;2022-12-15T02:39:43;41.27;;;22.97;;
42600;SDS011;28229;48.856;9.088;2022-12-15T02:42:10;43.30;;;23.37;;
42600;SDS011;28229;48.856;9.088;2022-12-15T02:47:37;39.00;;;23.60;;
42600;SDS011;28229;48.856;9.088;2022-12-15T02:58:40;40.33;;;24.00;;
42600;SDS011;28229;48.856;9.088;2022-12-15T03:01:20;42.70;;;23.57;;
42600;SDS011;28229;48.856;9.088;2022-12-15T03:03:52;42.60;;;24.73;;
42600;SDS011;28229;48.856;9.088;2022-12-15T03:06:21;68.63;;;33.13;;
42600;SDS011;28229;48.856;9.088;2022-12-15T03:08:49;53.70;;;28.47;;
42600;SDS011;28229;48.856;9.088;2022-12-15T03:11:15;46.87;;;25.63;;
42600;SDS011;28229;48.856;9.088;2022-12-15T03:13:41;43.47;;;24.20;;
42600;SDS011;28229;48.856;9.088;2022-12-15T03:16:07;38.63;;;21.90;;
42600;SDS011;28229;48.856;9.088;2022-12-15T03:18:33;40.30;;;23.87;;
42600;SDS011;28229;48.856;9.088;2022-12-15T03:20:59;39.10;;;23.83;;
42600;SDS011;28229;48.856;9.088;2022-12-15T03:23:24;45.30;;;24.30;;
42600;SDS011;28229;48.856;9.088;2022-12-15T03:25:50;39.47;;;22.87;;
42600;SDS011;28229;48.856;9.088;2022-12-15T03:28:16;45.33;;;25.50;;
42600;SDS011;28229;48.856;9.088;2022-12-15T03:30:43;44.83;;;24.80;;
42600;SDS011;28229;48.856;9.088;2022-12-15T03:33:08;41.27;;;24.27;;
42600;SDS011;28229;48.856;9.088;2022-12-15T03:35:34;44.90;;;24.30;;
42600;SDS011;28229;48.856;9.088;2022-12-15T03:38:00;40.30;;;23.67;;
42600;SDS011;28229;48.856;9.088;2022-12-15T03:40:26;43.23;;;23.83;;
42600;SDS011;28229;48.856;9.088;2022-12-15T03:42:52;41.13;;;24.63;;
42600;SDS011;28229;48.856;9.088;2022-12-15T03:45:19;39.43;;;22.87;;
42600;SDS011;28229;48.856;9.088;2022-12-15T03:47:49;36.87;;;21.53;;
42600;SDS011;28229;48.856;9.088;2022-12-15T03:50:17;40.03;;;23.20;;
42600;SDS011;28229;48.856;9.088;2022-12-15T03:52:52;39.80;;;22.63;;
42600;SDS011;28229;48.856;9.088;2022-12-15T03:55:26;42.03;;;24.10;;
42600;SDS011;28229;48.856;9.088;2022-12-15T03:57:53;40.40;;;23.10;;
42600;SDS011;28229;48.856;9.088;2022-12-15T04:00:20;40.90;;;22.47;;
42600;SDS011;28229;48.856;9.088;2022-12-15T04:02:49;40.37;;;22.80;;
42600;SDS011;28229;48.856;9.088;2022-12-15T04:05:20;42.47;;;24.73;;
42600;SDS011;28229;48.856;9.088;2022-12-15T04:07:50;39.63;;;23.20;;
42600;SDS011;28229;48.856;9.088;2022-12-15T04:10:17;45.63;;;24.33;;
42600;SDS011;28229;48.856;9.088;2022-12-15T04:12:43;41.60;;;23.93;;
42600;SDS011;28229;48.856;9.088;2022-12-15T04:15:09;42.97;;;25.77;;
42600;SDS011;28229;48.856;9.088;2022-12-15T04:17:36;45.43;;;26.03;;
42600;SDS011;28229;48.856;9.088;2022-12-15T04:20:03;42.23;;;24.03;;
42600;SDS011;28229;48.856;9.088;2022-12-15T04:25:06;42.10;;;24.53;;
42600;SDS011;28229;48.856;9.088;2022-12-15T04:27:53;40.80;;;23.60;;
42600;SDS011;28229;48.856;9.088;2022-12-15T04:30:39;38.77;;;23.03;;
42600;SDS011;28229;48.856;9.088;2022-12-15T04:33:28;38.40;;;21.93;;
42600;SDS011;28229;48.856;9.088;2022-12-15T04:36:13;45.50;;;24.50;;
42600;SDS011;28229;48.856;9.088;2022-12-15T04:38:58;41.50;;;23.83;;
42600;SDS011;28229;48.856;9.088;2022-12-15T04:41:43;44.13;;;24.83;;
42600;SDS011;28229;48.856;9.088;2022-12-15T04:44:28;42.93;;;24.17;;
42600;SDS011;28229;48.856;9.088;2022-12-15T04:47:13;45.77;;;25.60;;
42600;SDS011;28229;48.856;9.088;2022-12-15T04:49:58;45.93;;;25.17;;
42600;SDS011;28229;48.856;9.088;2022-12-15T04:52:42;42.03;;;23.17;;
42600;SDS011;28229;48.856;9.088;2022-12-15T04:55:26;48.30;;;25.53;;
42600;SDS011;28229;48.856;9.088;2022-12-15T04:58:11;46.60;;;26.07;;
42600;SDS011;28229;48.856;9.088;2022-12-15T05:00:56;44.07;;;24.73;;
42600;SDS011;28229;48.856;9.088;2022-12-15T05:03:41;46.00;;;23.73;;
42600;SDS011;28229;48.856;9.088;2022-12-15T05:06:26;44.20;;;23.43;;
42600;SDS011;28229;48.856;9.088;2022-12-15T05:09:11;44.67;;;24.30;;
42600;SDS011;28229;48.856;9.088;2022-12-15T05:11:55;46.70;;;25.37;;
42600;SDS011;28229;48.856;9.088;2022-12-15T05:14:39;49.10;;;25.43;;
42600;SDS011;28229;48.856;9.088;2022-12-15T05:17:24;52.80;;;25.57;;
42600;SDS011;28229;48.856;9.088;2022-12-15T05:20:08;42.70;;;24.20;;
42600;SDS011;28229;48.856;9.088;2022-12-15T05:22:53;45.97;;;25.47;;
42600;SDS011;28229;48.856;9.088;2022-12-15T05:25:39;49.20;;;26.33;;
42600;SDS011;28229;48.856;9.088;2022-12-15T05:28:24;46.40;;;25.97;;
42600;SDS011;28229;48.856;9.088;2022-12-15T05:31:09;48.13;;;25.37;;
42600;SDS011;28229;48.856;9.088;2022-12-15T05:33:54;47.03;;;25.80;;
42600;SDS011;28229;48.856;9.088;2022-12-15T05:36:20;47.17;;;24.07;;
42600;SDS011;28229;48.856;9.088;2022-12-15T05:38:50;47.67;;;25.67;;
42600;SDS011;28229;48.856;9.088;2022-12-15T05:41:17;49.07;;;25.83;;
42600;SDS011;28229;48.856;9.088;2022-12-15T05:43:43;50.73;;;27.07;;
42600;SDS011;28229;48.856;9.088;2022-12-15T05:46:10;43.87;;;25.60;;
42600;SDS011;28229;48.856;9.088;2022-12-15T05:48:39;45.83;;;26.20;;
42600;SDS011;28229;48.856;9.088;2022-12-15T05:51:09;48.87;;;25.03;;
42600;SDS011;28229;48.856;9.088;2022-12-15T05:53:36;45.40;;;24.90;;
42600;SDS011;28229;48.856;9.088;2022-12-15T05:56:06;47.10;;;25.40;;
42600;SDS011;28229;48.856;9.088;2022-12-15T05:58:34;49.40;;;24.43;;
42600;SDS011;28229;48.856;9.088;2022-12-15T06:01:05;44.60;;;24.20;;
42600;SDS011;28229;48.856;9.088;2022-12-15T06:03:33;46.67;;;24.93;;
42600;SDS011;28229;48.856;9.088;2022-12-15T06:05:59;43.93;;;24.03;;
42600;SDS011;28229;48.856;9.088;2022-12-15T06:08:28;48.00;;;25.30;;
42600;SDS011;28229;48.856;9.088;2022-12-15T06:10:54;43.20;;;23.23;;
42600;SDS011;28229;48.856;9.088;2022-12-15T06:13:24;41.43;;;24.43;;
42600;SDS011;28229;48.856;9.088;2022-12-15T06:15:59;46.97;;;25.53;;
42600;SDS011;28229;48.856;9.088;2022-12-15T06:18:35;48.00;;;24.73;;
42600;SDS011;28229;48.856;9.088;2022-12-15T06:21:06;45.60;;;24.27;;
42600;SDS011;28229;48.856;9.088;2022-12-15T06:23:33;45.87;;;24.87;;
42600;SDS011;28229;48.856;9.088;2022-12-15T06:26:06;49.23;;;23.10;;
42600;SDS011;28229;48.856;9.088;2022-12-15T06:28:35;48.83;;;25.97;;
42600;SDS011;28229;48.856;9.088;2022-12-15T06:31:01;48.43;;;26.20;;
42600;SDS011;28229;48.856;9.088;2022-12-15T06:33:31;40.10;;;23.00;;
42600;SDS011;28229;48.856;9.088;2022-12-15T06:36:00;45.13;;;23.43;;
42600;SDS011;28229;48.856;9.088;2022-12-15T06:38:28;42.63;;;23.03;;
42600;SDS011;28229;48.856;9.088;2022-12-15T06:40:55;40.20;;;23.10;;
42600;SDS011;28229;48.856;9.088;2022-12-15T06:43:21;43.37;;;23.97;;
42600;SDS011;28229;48.856;9.088;2022-12-15T06:45:47;48.33;;;25.80;;
42600;SDS011;28229;48.856;9.088;2022-12-15T06:48:14;43.33;;;23.70;;
42600;SDS011;28229;48.856;9.088;2022-12-15T06:50:41;43.37;;;24.77;;
42600;SDS011;28229;48.856;9.088;2022-12-15T06:53:07;46.73;;;25.57;;
42600;SDS011;28229;48.856;9.088;2022-12-15T06:55:33;48.13;;;25.30;;
42600;SDS011;28229;48.856;9.088;2022-12-15T06:57:59;45.87;;;23.83;;
42600;SDS011;28229;48.856;9.088;2022-12-15T07:00:24;48.60;;;24.90;;
42600;SDS011;28229;48.856;9.088;2022-12-15T07:02:52;41.33;;;24.17;;
42600;SDS011;28229;48.856;9.088;2022-12-15T07:05:18;44.00;;;24.93;;
42600;SDS011;28229;48.856;9.088;2022-12-15T07:07:46;42.80;;;24.50;;
42600;SDS011;28229;48.856;9.088;2022-12-15T07:10:12;40.33;;;21.17;;
42600;SDS011;28229;48.856;9.088;2022-12-15T07:12:38;49.10;;;26.63;;
42600;SDS011;28229;48.856;9.088;2022-12-15T07:15:04;49.13;;;25.83;;
42600;SDS011;28229;48.856;9.088;2022-12-15T07:17:33;53.20;;;26.87;;
42600;SDS011;28229;48.856;9.088;2022-12-15T07:20:00;47.93;;;25.70;;
42600;SDS011;28229;48.856;9.088;2022-12-15T07:22:27;46.53;;;26.23;;
42600;SDS011;28229;48.856;9.088;2022-12-15T07:24:53;44.97;;;26.00;;
42600;SDS011;28229;48.856;9.088;2022-12-15T07:27:19;46.00;;;25.43;;
42600;SDS011;28229;48.856;9.088;2022-12-15T07:29:45;46.70;;;26.10;;
42600;SDS011;28229;48.856;9.088;2022-12-15T07:32:11;46.60;;;26.20;;
42600;SDS011;28229;48.856;9.088;2022-12-15T07:34:36;47.33;;;25.73;;
42600;SDS011;28229;48.856;9.088;2022-12-15T07:37:03;43.70;;;23.50;;
42600;SDS011;28229;48.856;9.088;2022-12-15T07:39:29;48.70;;;25.53;;
42600;SDS011;28229;48.856;9.088;2022-12-15T07:41:54;45.37;;;24.53;;
42600;SDS011;28229;48.856;9.088;2022-12-15T07:44:20;47.20;;;26.67;;
42600;SDS011;28229;48.856;9.088;2022-12-15T07:46:46;49.77;;;27.93;;
42600;SDS011;28229;48.856;9.088;2022-12-15T07:49:14;48.60;;;25.30;;
42600;SDS011;28229;48.856;9.088;2022-12-15T07:51:43;55.63;;;27.37;;
42600;SDS011;28229;48.856;9.088;2022-12-15T07:54:09;46.93;;;24.90;;
42600;SDS011;28229;48.856;9.088;2022-12-15T07:56:36;44.50;;;25.23;;
42600;SDS011;28229;48.856;9.088;2022-12-15T07:59:03;46.80;;;26.30;;
42600;SDS011;28229;48.856;9.088;2022-12-15T08:01:30;47.80;;;24.70;;
42600;SDS011;28229;48.856;9.088;2022-12-15T08:03:56;49.03;;;26.07;;
42600;SDS011;28229;48.856;9.088;2022-12-15T08:06:22;43.97;;;24.43;;
42600;SDS011;28229;48.856;9.088;2022-12-15T08:08:49;48.07;;;26.97;;
42600;SDS011;28229;48.856;9.088;2022-12-15T08:11:15;48.13;;;25.60;;
42600;SDS011;28229;48.856;9.088;2022-12-15T08:13:41;51.50;;;27.10;;
42600;SDS011;28229;48.856;9.088;2022-12-15T08:16:08;48.90;;;26.20;;
42600;SDS011;28229;48.856;9.088;2022-12-15T08:18:35;56.33;;;29.97;;
42600;SDS011;28229;48.856;9.088;2022-12-15T08:21:01;53.97;;;30.00;;
42600;SDS011;28229;48.856;9.088;2022-12-15T08:23:28;55.23;;;31.00;;
42600;SDS011;28229;48.856;9.088;2022-12-15T08:26:00;51.27;;;29.33;;
42600;SDS011;28229;48.856;9.088;2022-12-15T08:28:27;48.13;;;26.70;;
42600;SDS011;28229;48.856;9.088;2022-12-15T08:30:53;47.07;;;24.90;;
42600;SDS011;28229;48.856;9.088;2022-12-15T08:33:19;47.77;;;25.63;;
42600;SDS011;28229;48.856;9.088;2022-12-15T08:35:49;49.07;;;26.17;;
42600;SDS011;28229;48.856;9.088;2022-12-15T08:38:14;46.40;;;25.93;;
42600;SDS011;28229;48.856;9.088;2022-12-15T08:40:40;50.43;;;26.07;;
42600;SDS011;28229;48.856;9.088;2022-12-15T08:43:06;49.63;;;25.70;;
42600;SDS011;28229;48.856;9.088;2022-12-15T08:45:32;49.00;;;26.20;;
42600;SDS011;28229;48.856;9.088;2022-12-15T08:47:57;46.53;;;26.10;;
42600;SDS011;28229;48.856;9.088;2022-12-15T08:50:23;53.10;;;29.33;;
42600;SDS011;28229;48.856;9.088;2022-12-15T08:52:49;51.23;;;27.13;;
42600;SDS011;28229;48.856;9.088;2022-12-15T08:55:15;46.20;;;24.87;;
42600;SDS011;28229;48.856;9.088;2022-12-15T08:57:41;44.70;;;24.30;;
42600;SDS011;28229;48.856;9.088;2022-12-15T09:00:07;44.63;;;23.93;;
42600;SDS011;28229;48.856;9.088;2022-12-15T09:02:33;42.13;;;24.73;;
42600;SDS011;28229;48.856;9.088;2022-12-15T09:04:59;39.27;;;23.60;;
42600;SDS011;28229;48.856;9.088;2022-12-15T09:07:25;43.27;;;23.97;;
42600;SDS011;28229;48.856;9.088;2022-12-15T09:09:50;45.53;;;25.27;;
42600;SDS011;28229;48.856;9.088;2022-12-15T09:12:16;46.83;;;24.57;;
42600;SDS011;28229;48.856;9.088;2022-12-15T09:14:42;51.07;;;26.63;;
42600;SDS011;28229;48.856;9.088;2022-12-15T09:17:08;47.13;;;25.30;;
42600;SDS011;28229;48.856;9.088;2022-12-15T09:19:33;40.33;;;22.73;;
42600;SDS011;28229;48.856;9.088;2022-12-15T09:22:00;45.47;;;24.97;;
42600;SDS011;28229;48.856;9.088;2022-12-15T09:24:26;40.27;;;23.77;;
42600;SDS011;28229;48.856;9.088;2022-12-15T09:26:52;40.97;;;23.73;;
42600;SDS011;28229;48.856;9.088;2022-12-15T09:29:18;43.50;;;25.40;;
42600;SDS011;28229;48.856;9.088;2022-12-15T09:31:44;41.17;;;23.93;;
42600;SDS011;28229;48.856;9.088;2022-12-15T09:34:13;40.27;;;23.37;;
42600;SDS011;28229;48.856;9.088;2022-12-15T09:36:42;37.90;;;21.30;;
42600;SDS011;28229;48.856;9.088;2022-12-15T09:39:08;39.30;;;22.80;;
42600;SDS011;28229;48.856;9.088;2022-12-15T09:41:37;40.43;;;21.97;;
42600;SDS011;28229;48.856;9.088;2022-12-15T09:44:11;39.53;;;22.73;;
42600;SDS011;28229;48.856;9.088;2022-12-15T09:52:21;36.57;;;20.47;;
42600;SDS011;28229;48.856;9.088;2022-12-15T09:54:50;35.57;;;20.73;;
42600;SDS011;28229;48.856;9.088;2022-12-15T10:00:24;37.30;;;22.23;;
42600;SDS011;28229;48.856;9.088;2022-12-15T10:08:26;39.63;;;22.07;;
42600;SDS011;28229;48.856;9.088;2022-12-15T10:10:55;40.43;;;22.27;;
42600;SDS011;28229;48.856;9.088;2022-12-15T10:13:37;39.47;;;22.70;;
42600;SDS011;28229;48.856;9.088;2022-12-15T10:16:15;40.83;;;22.27;;
42600;SDS011;28229;48.856;9.088;2022-12-15T10:19:15;36.73;;;21.37;;
42600;SDS011;28229;48.856;9.088;2022-12-15T10:21:55;36.83;;;22.33;;
42600;SDS011;28229;48.856;9.088;2022-12-15T10:24:22;41.00;;;22.03;;
42600;SDS011;28229;48.856;9.088;2022-12-15T10:26:58;35.97;;;21.57;;
42600;SDS011;28229;48.856;9.088;2022-12-15T10:29:45;42.03;;;23.97;;
42600;SDS011;28229;48.856;9.088;2022-12-15T10:32:22;49.87;;;26.70;;
42600;SDS011;28229;48.856;9.088;2022-12-15T10:34:56;44.63;;;24.23;;
42600;SDS011;28229;48.856;9.088;2022-12-15T10:37:22;41.40;;;22.13;;
42600;SDS011;28229;48.856;9.088;2022-12-15T10:39:49;41.10;;;22.30;;
42600;SDS011;28229;48.856;9.088;2022-12-15T10:42:19;38.80;;;23.10;;
42600;SDS011;28229;48.856;9.088;2022-12-15T10:44:51;45.67;;;24.13;;
42600;SDS011;28229;48.856;9.088;2022-12-15T10:47:21;42.53;;;23.83;;
42600;SDS011;28229;48.856;9.088;2022-12-15T10:50:17;36.97;;;22.63;;
42600;SDS011;28229;48.856;9.088;2022-12-15T10:52:47;42.67;;;23.00;;
42600;SDS011;28229;48.856;9.088;2022-12-15T10:58:21;38.03;;;21.60;;
42600;SDS011;28229;48.856;9.088;2022-12-15T11:00:48;35.83;;;22.17;;
42600;SDS011;28229;48.856;9.088;2022-12-15T11:03:34;36.60;;;21.00;;
42600;SDS011;28229;48.856;9.088;2022-12-15T11:06:01;37.63;;;21.43;;
42600;SDS011;28229;48.856;9.088;2022-12-15T11:08:55;36.10;;;21.70;;
42600;SDS011;28229;48.856;9.088;2022-12-15T11:11:32;38.93;;;21.40;;
42600;SDS011;28229;48.856;9.088;2022-12-15T11:14:18;34.63;;;20.97;;
42600;SDS011;28229;48.856;9.088;2022-12-15T11:16:52;35.20;;;20.50;;
42600;SDS011;28229;48.856;9.088;2022-12-15T11:19:26;32.77;;;20.23;;
42600;SDS011;28229;48.856;9.088;2022-12-15T11:22:15;34.83;;;21.27;;
42600;SDS011;28229;48.856;9.088;2022-12-15T11:24:51;34.23;;;21.20;;
42600;SDS011;28229;48.856;9.088;2022-12-15T11:27:35;35.30;;;21.00;;
42600;SDS011;28229;48.856;9.088;2022-12-15T11:30:15;36.60;;;21.13;;
42600;SDS011;28229;48.856;9.088;2022-12-15T11:32:44;34.97;;;20.77;;
42600;SDS011;28229;48.856;9.088;2022-12-15T11:35:14;36.60;;;22.90;;
42600;SDS011;28229;48.856;9.088;2022-12-15T11:37:55;34.33;;;20.30;;
42600;SDS011;28229;48.856;9.088;2022-12-15T11:40:37;32.77;;;20.37;;
42600;SDS011;28229;48.856;9.088;2022-12-15T11:43:11;36.67;;;21.47;;
42600;SDS011;28229;48.856;9.088;2022-12-15T11:46:00;34.77;;;21.07;;
42600;SDS011;28229;48.856;9.088;2022-12-15T11:51:16;34.23;;;21.00;;
42600;SDS011;28229;48.856;9.088;2022-12-15T11:56:34;35.60;;;20.30;;
42600;SDS011;28229;48.856;9.088;2022-12-15T11:59:13;32.93;;;20.80;;
42600;SDS011;28229;48.856;9.088;2022-12-15T12:01:52;35.07;;;20.33;;
42600;SDS011;28229;48.856;9.088;2022-12-15T12:04:45;35.47;;;21.67;;
42600;SDS011;28229;48.856;9.088;2022-12-15T12:07:21;34.83;;;21.20;;
42600;SDS011;28229;48.856;9.088;2022-12-15T12:16:08;33.80;;;20.83;;
42600;SDS011;28229;48.856;9.088;2022-12-15T12:18:59;33.30;;;20.53;;
42600;SDS011;28229;48.856;9.088;2022-12-15T12:21:36;33.33;;;21.20;;
42600;SDS011;28229;48.856;9.088;2022-12-15T12:24:25;34.50;;;21.57;;
42600;SDS011;28229;48.856;9.088;2022-12-15T12:27:00;30.97;;;20.37;;
42600;SDS011;28229;48.856;9.088;2022-12-15T12:29:33;35.40;;;20.73;;
42600;SDS011;28229;48.856;9.088;2022-12-15T12:34:51;34.80;;;20.97;;
42600;SDS011;28229;48.856;9.088;2022-12-15T12:40:00;33.90;;;20.23;;
42600;SDS011;28229;48.856;9.088;2022-12-15T12:42:33;31.33;;;19.53;;
42600;SDS011;28229;48.856;9.088;2022-12-15T12:45:09;31.27;;;18.80;;
42600;SDS011;28229;48.856;9.088;2022-12-15T12:47:37;32.27;;;19.53;;
42600;SDS011;28229;48.856;9.088;2022-12-15T12:50:13;30.77;;;19.37;;
42600;SDS011;28229;48.856;9.088;2022-12-15T12:52:52;33.57;;;20.20;;
42600;SDS011;28229;48.856;9.088;2022-12-15T12:55:27;30.03;;;18.53;;
42600;SDS011;28229;48.856;9.088;2022-12-15T12:58:02;29.90;;;18.40;;
42600;SDS011;28229;48.856;9.088;2022-12-15T13:00:28;27.87;;;18.83;;
42600;SDS011;28229;48.856;9.088;2022-12-15T13:03:12;32.83;;;20.17;;
42600;SDS011;28229;48.856;9.088;2022-12-15T13:05:43;33.30;;;19.60;;
42600;SDS011;28229;48.856;9.088;2022-12-15T13:10:46;32.83;;;18.93;;
42600;SDS011;28229;48.856;9.088;2022-12-15T13:16:05;30.03;;;18.87;;
42600;SDS011;28229;48.856;9.088;2022-12-15T13:19:21;28.20;;;18.07;;
42600;SDS011;28229;48.856;9.088;2022-12-15T13:24:25;29.43;;;17.97;;
42600;SDS011;28229;48.856;9.088;2022-12-15T13:29:55;32.30;;;18.33;;
42600;SDS011;28229;48.856;9.088;2022-12-15T13:32:31;29.50;;;17.73;;
42600;SDS011;28229;48.856;9.088;2022-12-15T13:35:14;30.50;;;18.53;;
42600;SDS011;28229;48.856;9.088;2022-12-15T13:37:42;30.20;;;18.13;;
42600;SDS011;28229;48.856;9.088;2022-12-15T13:40:24;30.00;;;17.80;;
42600;SDS011;28229;48.856;9.088;2022-12-15T13:43:06;34.67;;;19.77;;
42600;SDS011;28229;48.856;9.088;2022-12-15T13:45:51;31.60;;;18.13;;
42600;SDS011;28229;48.856;9.088;2022-12-15T13:51:09;27.10;;;17.47;;
42600;SDS011;28229;48.856;9.088;2022-12-15T13:54:18;29.60;;;18.33;;
42600;SDS011;28229;48.856;9.088;2022-12-15T14:01:57;30.87;;;18.17;;
42600;SDS011;28229;48.856;9.088;2022-12-15T14:04:24;31.30;;;18.90;;
42600;SDS011;28229;48.856;9.088;2022-12-15T14:09:27;31.63;;;18.60;;
42600;SDS011;28229;48.856;9.088;2022-12-15T14:11:55;31.33;;;17.87;;
42600;SDS011;28229;48.856;9.088;2022-12-15T14:14:26;35.30;;;19.57;;
42600;SDS011;28229;48.856;9.088;2022-12-15T14:16:58;38.00;;;20.57;;
42600;SDS011;28229;48.856;9.088;2022-12-15T14:19:34;35.40;;;20.57;;
42600;SDS011;28229;48.856;9.088;2022-12-15T14:22:02;31.67;;;19.43;;
42600;SDS011;28229;48.856;9.088;2022-12-15T14:24:32;32.57;;;19.10;;
42600;SDS011;28229;48.856;9.088;2022-12-15T14:26:58;49.60;;;25.87;;
42600;SDS011;28229;48.856;9.088;2022-12-15T14:29:24;36.67;;;21.20;;
42600;SDS011;28229;48.856;9.088;2022-12-15T14:31:55;38.73;;;21.27;;
42600;SDS011;28229;48.856;9.088;2022-12-15T14:34:27;37.40;;;21.30;;
42600;SDS011;28229;48.856;9.088;2022-12-15T14:37:06;34.07;;;19.73;;
42600;SDS011;28229;48.856;9.088;2022-12-15T14:39:38;34.83;;;19.60;;
42600;SDS011;28229;48.856;9.088;2022-12-15T14:42:13;37.00;;;20.77;;
42600;SDS011;28229;48.856;9.088;2022-12-15T14:44:43;35.67;;;21.43;;
42600;SDS011;28229;48.856;9.088;2022-12-15T14:49:54;32.03;;;19.93;;
42600;SDS011;28229;48.856;9.088;2022-12-15T14:52:27;37.20;;;20.47;;
42600;SDS011;28229;48.856;9.088;2022-12-15T14:55:03;36.33;;;20.50;;
42600;SDS011;28229;48.856;9.088;2022-12-15T14:57:50;36.57;;;20.10;;
42600;SDS011;28229;48.856;9.088;2022-12-15T15:00:31;33.13;;;19.80;;
42600;SDS011;28229;48.856;9.088;2022-12-15T15:05:52;31.63;;;19.60;;
42600;SDS011;28229;48.856;9.088;2022-12-15T15:08:26;32.23;;;19.37;;
42600;SDS011;28229;48.856;9.088;2022-12-15T15:10:55;31.40;;;20.23;;
42600;SDS011;28229;48.856;9.088;2022-12-15T15:13:26;33.07;;;20.57;;
42600;SDS011;28229;48.856;9.088;2022-12-15T15:16:02;36.47;;;21.83;;
42600;SDS011;28229;48.856;9.088;2022-12-15T15:18:30;38.13;;;20.87;;
42600;SDS011;28229;48.856;9.088;2022-12-15T15:21:00;36.70;;;21.50;;
42600;SDS011;28229;48.856;9.088;2022-12-15T15:23:29;37.27;;;19.47;;
42600;SDS011;28229;48.856;9.088;2022-12-15T15:25:56;34.73;;;20.23;;
42600;SDS011;28229;48.856;9.088;2022-12-15T15:28:36;31.77;;;18.67;;
42600;SDS011;28229;48.856;9.088;2022-12-15T15:31:21;33.30;;;19.10;;
42600;SDS011;28229;48.856;9.088;2022-12-15T15:33:51;31.50;;;19.17;;
42600;SDS011;28229;48.856;9.088;2022-12-15T15:36:19;33.50;;;19.60;;
42600;SDS011;28229;48.856;9.088;2022-12-15T15:38:47;31.23;;;19.87;;
42600;SDS011;28229;48.856;9.088;2022-12-15T15:43:39;28.03;;;16.87;;
42600;SDS011;28229;48.856;9.088;2022-12-15T15:46:06;28.67;;;16.50;;
42600;SDS011;28229;48.856;9.088;2022-12-15T15:48:37;27.63;;;16.23;;
42600;SDS011;28229;48.856;9.088;2022-12-15T15:51:07;28.03;;;16.33;;
42600;SDS011;28229;48.856;9.088;2022-12-15T15:53:33;24.80;;;15.80;;
42600;SDS011;28229;48.856;9.088;2022-12-15T15:56:00;26.47;;;17.77;;
42600;SDS011;28229;48.856;9.088;2022-12-15T15:58:28;34.20;;;20.37;;
42600;SDS011;28229;48.856;9.088;2022-12-15T16:00:53;27.73;;;17.53;;
42600;SDS011;28229;48.856;9.088;2022-12-15T16:03:21;28.67;;;17.07;;
42600;SDS011;28229;48.856;9.088;2022-12-15T16:05:46;29.23;;;16.70;;
42600;SDS011;28229;48.856;9.088;2022-12-15T16:08:14;32.83;;;18.37;;
42600;SDS011;28229;48.856;9.088;2022-12-15T16:10:43;32.30;;;17.97;;
42600;SDS011;28229;48.856;9.088;2022-12-15T16:13:12;33.23;;;19.03;;
42600;SDS011;28229;48.856;9.088;2022-12-15T16:15:41;33.97;;;19.67;;
42600;SDS011;28229;48.856;9.088;2022-12-15T16:18:07;34.63;;;19.23;;